Coleta, Illinois
Current Conditions -  °F | °C
As of 12:35 AM on Wednesday 26 Nov 2014 (Local Time) from KSQI Reporting Station
Clear Clear  
Wind Chill:   Ceiling: Unl
Heat Index: 10°   Visibility: 9mi
Dew Point:   Wind: 6mph
Humidity: 79%   Direction: 90°E
Pressure: 30.14"   Gusts: NA
Location:  41.91°N, 89.8°W
Report Text: KSQI 260635Z 09005KT 9SM CLR M12/M15 A3014 RMK AO1
Loading
Personal Weather Stations






























Interactive Weather Map New forecast layout! Learn more

10-Day Weather Forecast

Advertisements
Track Severe Weather on mobile